Detall de PIREP

Printer-friendly versionPDF version

[2015/06/21 05:43:00]
Flight IATA:CT2110
Pilot Number:041
Company ICAO:CAT
Aircraft Type:BE58/A
PAX:3
Departing Airport: LEVC
Destination Airport: LEST
Alternate Airport:LEAS
Online: VATSIM
Route:CENTA A33 FORNO
Flight Level:FL130
No Slew and time accel
No pause
Crash detect
Detect pilot in Cockpit between each 30 and 45 minutes
05:43 Zero fuel Weight: 4591 Lbs, Fuel Weight: 850 Lbs
05:43 VATSIM:LEVC 210500Z VRB02KT CAVOK 19/17 Q1018 NOSIG
05:43 VATSIM:LEST 210500Z 08005KT 040V110 CAVOK 15/13 Q1018 NOSIG
05:43 VOICE CATALONIAN
05:44 Parking Brakes off
05:48 Take-off
05:48 Take off Weight: 5439 Lbs
05:48 Wind: 064º @ 001 Knots Heading: 294º
05:48 POS N39º 29´ 22´´ W000º 28´ 56´´
05:48 Flaps:1 at 117 Knots
05:48 Gear Up: 116 Knots
05:48 Flaps:0 at 119 Knots
06:02 TOC
06:02 Fuel Weight: 793 Lb
06:03 Wind:285º@012 Knots Heading: 298º Ground Speed: 173 Knots Altitude 13133 ft
06:18 Wind:272º@023 Knots Heading: 296º Ground Speed: 180 Knots Altitude 13188 ft
06:33 Wind:274º@014 Knots Heading: 295º Ground Speed: 194 Knots Altitude 13202 ft
06:48 Wind:270º@015 Knots Heading: 294º Ground Speed: 186 Knots Altitude 13195 ft
07:03 Wind:267º@030 Knots Heading: 291º Ground Speed: 176 Knots Altitude 13215 ft
07:18 Wind:267º@024 Knots Heading: 300º Ground Speed: 183 Knots Altitude 13234 ft
07:33 Wind:272º@032 Knots Heading: 299º Ground Speed: 172 Knots Altitude 13248 ft
07:41 TOD
07:41 Fuel Weight: 457 Lb
07:48 Wind:253º@013 Knots Heading: 300º Ground Speed: 184 Knots Altitude 6108 ft
08:03 Wind:246º@023 Knots Heading: 294º Ground Speed: 160 Knots Altitude 4685 ft
08:06 Flaps:1 at 134 Knots
08:09 Flaps:2 at 136 Knots
08:09 Gear Down: 135 Knots
08:14 TouchDown:Rate -245 ft/min Speed: 89 Knots
08:14 Flaps:0 at 79 Knots
08:14 VATSIM:LEST 210800Z 10006KT 050V130 CAVOK 20/14 Q1019 NOSIG
08:14 Land
08:14 Wind:086º@002 Knots
08:14 Heading: 346º
08:14 Flight Duration: 02:26
08:14 Landing Weight: 4962 Lbs
08:14 POS N42º 53´ 22´´ W008º 24´ 46´´
08:15 Parking brakes on
08:15 Block to Block Duration: 02:31
08:15 Final Fuel: 370 Lbls
08:15 Spent Fuel: 480 Lbls
08:15 Flight Length: 425 NM
08:15 TOD Land Length: 89 NM

Exportar CSV

Powered by Drupal - Modified by Danger4k